createdAt,value
2018-01-04T00:00:06.906Z,14.77
2018-01-04T00:02:35.758Z,19.05
2018-01-04T00:05:04.810Z,14.30
2018-01-04T00:07:33.781Z,12.18
2018-01-04T00:10:03.663Z,17.92
2018-01-04T00:12:31.678Z,21.27
2018-01-04T00:15:02.790Z,17.77
2018-01-04T00:17:31.698Z,20.00
2018-01-04T00:20:03.313Z,24.60
2018-01-04T00:22:35.478Z,15.50
2018-01-04T00:25:08.150Z,12.95
2018-01-04T00:27:36.178Z,12.05
2018-01-04T00:30:07.258Z,17.60
2018-01-04T00:32:35.282Z,14.02
2018-01-04T00:35:14.730Z,21.60
2018-01-04T00:37:44.679Z,18.92
2018-01-04T00:40:17.998Z,18.90
2018-01-04T00:42:51.482Z,16.70
2018-01-04T00:45:19.514Z,19.67
2018-01-04T00:47:47.534Z,16.15
2018-01-04T00:50:16.319Z,18.17
2018-01-04T00:52:45.098Z,16.33
2018-01-04T00:55:16.842Z,18.48
2018-01-04T00:57:44.879Z,19.67
2018-01-04T01:00:13.790Z,16.20
2018-01-04T01:02:41.838Z,19.42
2018-01-04T01:05:09.854Z,18.50
2018-01-04T01:07:38.830Z,17.05
2018-01-04T01:10:06.854Z,27.55
2018-01-04T01:12:34.870Z,25.92
2018-01-04T01:15:03.782Z,17.27
2018-01-04T01:17:31.789Z,30.10
2018-01-04T01:19:59.814Z,21.65
2018-01-04T01:22:27.862Z,17.00
2018-01-04T01:24:55.894Z,17.27
2018-01-04T01:27:24.794Z,21.08
2018-01-04T01:29:55.878Z,27.77
2018-01-04T01:32:24.866Z,19.70
2018-01-04T01:34:52.886Z,17.00
2018-01-04T01:37:21.785Z,16.10
2018-01-04T01:39:49.798Z,19.62
2018-01-04T01:42:18.782Z,17.30
2018-01-04T01:44:54.130Z,18.20
2018-01-04T01:47:22.146Z,16.37
2018-01-04T01:49:50.162Z,14.00
2018-01-04T01:52:19.079Z,17.30
2018-01-04T01:54:49.821Z,18.05
2018-01-04T01:57:17.858Z,23.20
2018-01-04T01:59:45.882Z,20.23
2018-01-04T02:02:13.898Z,18.65
2018-01-04T02:04:42.797Z,32.63
2018-01-04T02:07:12.814Z,22.75
2018-01-04T02:09:40.854Z,13.27
2018-01-04T02:12:09.866Z,20.98
2018-01-04T02:14:37.910Z,41.78
2018-01-04T02:17:05.878Z,27.37
2018-01-04T02:23:03.265Z,35.72
2018-01-04T02:25:43.005Z,31.65
2018-01-04T02:28:23.009Z,27.48
2018-01-04T02:31:05.654Z,30.60
2018-01-04T02:33:46.538Z,18.70
2018-01-04T02:36:28.206Z,27.23
2018-01-04T02:39:07.977Z,20.20
2018-01-04T02:41:48.938Z,23.85
2018-01-04T02:44:29.869Z,16.15
2018-01-04T02:47:03.581Z,32.22
2018-01-04T02:49:33.353Z,20.73
2018-01-04T02:52:11.849Z,25.62
2018-01-04T02:54:41.765Z,21.75
2018-01-04T02:57:21.517Z,20.25
2018-01-04T02:59:49.529Z,17.05
2018-01-04T03:02:23.501Z,17.48
2018-01-04T03:04:53.517Z,18.58
2018-01-04T03:07:21.545Z,15.73
2018-01-04T03:09:51.493Z,19.17
2018-01-04T03:12:19.521Z,14.57
2018-01-04T03:14:48.479Z,21.00
2018-01-04T03:17:17.389Z,10.88
2018-01-04T03:19:47.381Z,18.75
2018-01-04T03:22:21.113Z,16.85
2018-01-04T03:24:59.217Z,24.40
2018-01-04T03:27:35.609Z,13.82
2018-01-04T03:30:16.397Z,13.18
2018-01-04T03:32:54.461Z,17.70
2018-01-04T03:35:29.077Z,14.60
2018-01-04T03:38:04.489Z,18.83
2018-01-04T03:40:39.161Z,15.55
2018-01-04T03:43:13.733Z,22.65
2018-01-04T03:45:48.341Z,30.65
2018-01-04T03:48:21.977Z,22.40
2018-01-04T03:50:59.461Z,14.55
2018-01-04T03:53:34.030Z,22.13
2018-01-04T03:56:22.277Z,22.37
2018-01-04T03:58:56.829Z,20.90
2018-01-04T04:01:34.365Z,18.65
2018-01-04T04:04:03.165Z,16.35
2018-01-04T04:06:35.085Z,23.73
2018-01-04T04:09:06.733Z,15.40
2018-01-04T04:11:36.753Z,17.95
2018-01-04T04:14:10.505Z,25.58
2018-01-04T04:16:40.397Z,28.58
2018-01-04T04:19:10.184Z,14.73
2018-01-04T04:21:40.217Z,17.58
2018-01-04T04:24:08.233Z,9.88
2018-01-04T04:26:36.257Z,16.15
2018-01-04T04:29:10.636Z,11.05
2018-01-04T04:31:41.700Z,13.98
2018-01-04T04:34:14.320Z,25.08
2018-01-04T04:36:42.336Z,18.05
2018-01-04T04:39:13.905Z,17.83
2018-01-04T04:41:43.925Z,19.25
2018-01-04T04:44:12.904Z,30.12
2018-01-04T04:46:40.928Z,18.10
2018-01-04T04:49:14.893Z,16.42
2018-01-04T04:51:42.909Z,9.27
2018-01-04T04:54:17.964Z,13.35
2018-01-04T04:56:45.981Z,23.70
2018-01-04T04:59:19.828Z,16.87
2018-01-04T05:01:52.033Z,27.62
2018-01-04T05:04:20.061Z,23.08
2018-01-04T05:06:48.081Z,19.20
2018-01-04T05:09:17.053Z,15.82
2018-01-04T05:14:10.408Z,21.73
2018-01-04T05:16:39.428Z,19.50
2018-01-04T05:19:14.332Z,11.85
2018-01-04T05:21:43.369Z,19.33
2018-01-04T05:24:16.956Z,20.17
2018-01-04T05:26:44.980Z,15.90
2018-01-04T05:29:14.938Z,23.85
2018-01-04T05:31:43.824Z,20.25
2018-01-04T05:34:13.852Z,20.20
2018-01-04T05:36:44.872Z,21.20
2018-01-04T05:39:12.892Z,16.60
2018-01-04T05:41:46.348Z,14.60
2018-01-04T05:44:14.404Z,34.38
2018-01-04T05:46:45.964Z,21.05
2018-01-04T05:49:13.996Z,18.80
2018-01-04T05:51:58.744Z,18.60
2018-01-04T05:54:33.040Z,27.87
2018-01-04T05:57:01.960Z,17.60
2018-01-04T05:59:29.985Z,13.60
2018-01-04T06:01:58.968Z,21.33
2018-01-04T06:04:28.885Z,24.58
2018-01-04T06:06:57.903Z,18.65
2018-01-04T06:09:25.916Z,30.55
2018-01-04T06:11:55.852Z,17.48
2018-01-04T06:14:24.756Z,21.52
2018-01-04T06:16:52.784Z,19.10
2018-01-04T06:19:24.516Z,20.20
2018-01-04T06:21:54.292Z,28.23
2018-01-04T06:24:26.048Z,19.80
2018-01-04T06:27:00.472Z,25.55
2018-01-04T06:29:38.132Z,20.40
2018-01-04T06:32:06.148Z,29.17
2018-01-04T06:34:39.784Z,21.30
2018-01-04T06:37:13.536Z,20.42
2018-01-04T06:39:41.576Z,24.40
2018-01-04T06:42:10.619Z,22.83
2018-01-04T06:44:46.288Z,26.25
2018-01-04T06:47:21.972Z,23.17
2018-01-04T06:49:49.992Z,24.48
2018-01-04T06:52:20.696Z,22.62
2018-01-04T06:54:49.710Z,30.48
2018-01-04T06:57:21.888Z,12.70
2018-01-04T06:59:54.844Z,24.85
2018-01-04T07:02:22.864Z,13.57
2018-01-04T07:04:50.885Z,16.58
2018-01-04T07:07:19.884Z,16.30
2018-01-04T07:09:47.912Z,21.45
2018-01-04T07:12:19.114Z,17.52
2018-01-04T07:14:48.900Z,23.87
2018-01-04T07:17:17.840Z,21.17
2018-01-04T07:19:47.816Z,18.23
2018-01-04T07:22:21.984Z,22.45
2018-01-04T07:24:51.024Z,23.02
2018-01-04T07:27:19.040Z,32.67
2018-01-04T07:29:47.988Z,23.05
2018-01-04T07:32:20.344Z,18.15
2018-01-04T07:34:53.056Z,16.30
2018-01-04T07:37:28.736Z,56.58
2018-01-04T07:39:56.808Z,21.52
2018-01-04T07:42:28.444Z,14.77
2018-01-04T07:45:03.916Z,35.33
2018-01-04T07:47:33.864Z,20.40
2018-01-04T07:50:02.860Z,16.42
2018-01-04T07:52:31.864Z,9.32
2018-01-04T07:55:04.216Z,14.43
2018-01-04T07:57:39.528Z,20.55
2018-01-04T08:00:07.532Z,16.75
2018-01-04T08:02:36.516Z,12.68
2018-01-04T08:05:04.532Z,29.45
2018-01-04T08:07:32.560Z,12.90
2018-01-04T08:10:00.571Z,18.25
2018-01-04T08:12:34.293Z,17.10
2018-01-04T08:15:03.320Z,19.35
2018-01-04T08:17:37.084Z,16.75
2018-01-04T08:20:07.643Z,14.95
2018-01-04T08:22:37.631Z,16.90
2018-01-04T08:25:12.016Z,11.45
2018-01-04T08:27:45.491Z,10.40
2018-01-04T08:30:15.399Z,10.90
2018-01-04T08:32:51.871Z,5.12
2018-01-04T08:35:28.959Z,11.75
2018-01-04T08:37:56.963Z,12.93
2018-01-04T08:40:25.903Z,6.35
2018-01-04T08:42:57.559Z,10.20
2018-01-04T08:45:25.567Z,4.80
2018-01-04T08:47:58.531Z,3.30
2018-01-04T08:50:32.960Z,8.95
2018-01-04T08:53:09.684Z,7.55
2018-01-04T08:55:54.327Z,6.50
2018-01-04T08:58:26.623Z,3.60
2018-01-04T09:00:54.656Z,11.52
2018-01-04T09:03:42.257Z,9.40
2018-01-04T09:06:12.404Z,3.83
2018-01-04T09:08:46.264Z,9.77
2018-01-04T09:11:27.471Z,14.15
2018-01-04T09:13:56.531Z,4.82
2018-01-04T09:16:25.515Z,6.07
2018-01-04T09:19:05.352Z,5.65
2018-01-04T09:21:33.355Z,6.28
2018-01-04T09:24:03.351Z,7.97
2018-01-04T09:26:32.347Z,7.75
2018-01-04T09:29:18.775Z,3.30
2018-01-04T09:31:47.963Z,6.25
2018-01-04T09:34:21.327Z,6.18
2018-01-04T09:37:08.699Z,6.07
2018-01-04T09:39:44.783Z,5.32
2018-01-04T09:42:13.717Z,7.12
2018-01-04T09:44:41.715Z,3.40
2018-01-04T09:47:11.395Z,9.05
2018-01-04T09:49:53.312Z,9.70
2018-01-04T09:52:26.883Z,7.03
2018-01-04T09:55:06.432Z,4.57
2018-01-04T09:57:38.792Z,6.57
2018-01-04T10:00:06.808Z,7.82
2018-01-04T10:02:38.645Z,7.07
2018-01-04T10:05:06.647Z,3.37
2018-01-04T10:07:34.658Z,3.53
2018-01-04T10:10:06.824Z,4.35
2018-01-04T10:12:39.564Z,11.50
2018-01-04T10:15:08.507Z,3.53
2018-01-04T10:17:39.855Z,2.10
2018-01-04T10:20:09.775Z,7.40
2018-01-04T10:22:37.795Z,4.55
2018-01-04T10:25:13.415Z,3.03
2018-01-04T10:27:43.253Z,5.80
2018-01-04T10:30:12.295Z,4.25
2018-01-04T10:35:35.871Z,1.98
2018-01-04T10:38:03.887Z,4.97
2018-01-04T10:40:32.819Z,4.43
2018-01-04T10:43:11.635Z,1.73
2018-01-04T10:45:39.662Z,0.82
2018-01-04T10:48:11.891Z,2.55
2018-01-04T10:50:40.195Z,2.40
2018-01-04T10:53:11.715Z,0.85
2018-01-04T10:58:47.517Z,1.10
2018-01-04T11:01:24.735Z,1.40
2018-01-04T11:03:53.719Z,2.75
2018-01-04T11:06:31.955Z,0.85
2018-01-04T11:09:18.681Z,3.83
2018-01-04T11:11:51.043Z,1.00
2018-01-04T11:14:28.815Z,1.70
2018-01-04T11:17:04.465Z,2.00
2018-01-04T11:19:45.020Z,1.67
2018-01-04T11:22:18.287Z,2.30
2018-01-04T11:24:47.580Z,2.80
2018-01-04T11:27:20.999Z,2.70
2018-01-04T11:29:50.327Z,3.00
2018-01-04T11:32:29.679Z,2.75
2018-01-04T11:35:04.575Z,3.75
2018-01-04T11:37:39.755Z,3.45
2018-01-04T11:40:07.779Z,3.20
2018-01-04T11:42:36.987Z,4.30
2018-01-04T11:45:07.058Z,3.10
2018-01-04T11:47:35.127Z,3.53
2018-01-04T11:50:03.160Z,8.88
2018-01-04T11:52:32.118Z,2.90
2018-01-04T11:55:01.079Z,3.92
2018-01-04T11:57:32.666Z,3.65
2018-01-04T12:00:06.276Z,3.67
2018-01-04T12:02:34.311Z,7.47
2018-01-04T12:05:06.095Z,3.55
2018-01-04T12:07:34.879Z,3.03
2018-01-04T12:10:04.578Z,3.50
2018-01-04T12:12:33.471Z,3.05
2018-01-04T12:15:03.271Z,3.05
2018-01-04T12:17:32.047Z,4.03
2018-01-04T12:20:04.923Z,4.55
2018-01-04T12:22:33.006Z,4.40
2018-01-04T12:25:01.018Z,3.03
2018-01-04T12:27:29.030Z,3.90
2018-01-04T12:29:57.070Z,4.47
2018-01-04T12:32:27.018Z,4.37
2018-01-04T12:34:58.590Z,3.72
2018-01-04T12:37:28.274Z,3.95
2018-01-04T12:39:56.375Z,3.53
2018-01-04T12:42:24.414Z,4.70
2018-01-04T12:44:55.166Z,3.95
2018-01-04T12:47:23.957Z,4.90
2018-01-04T12:49:52.734Z,4.50
2018-01-04T12:52:20.737Z,4.93
2018-01-04T12:54:49.670Z,4.40
2018-01-04T12:57:23.470Z,4.75
2018-01-04T12:59:51.741Z,4.85
2018-01-04T13:02:20.681Z,4.95
2018-01-04T13:04:57.013Z,4.82
2018-01-04T13:07:34.145Z,14.85
2018-01-04T13:10:07.805Z,6.07
2018-01-04T13:12:36.825Z,7.62
2018-01-04T13:15:05.826Z,6.18
2018-01-04T13:17:50.685Z,5.22
2018-01-04T13:20:18.733Z,6.22
2018-01-04T13:22:49.773Z,6.57
2018-01-04T13:25:18.789Z,7.43
2018-01-04T13:27:46.862Z,6.87
2018-01-04T13:30:20.963Z,7.43
2018-01-04T13:32:53.465Z,7.53
2018-01-04T13:35:21.501Z,7.62
2018-01-04T13:37:50.469Z,6.65
2018-01-04T13:40:19.465Z,6.78
2018-01-04T13:42:48.512Z,7.10
2018-01-04T13:45:18.065Z,6.10
2018-01-04T13:47:46.993Z,6.30
2018-01-04T13:50:16.657Z,5.78
2018-01-04T13:52:48.189Z,5.70
2018-01-04T13:55:18.137Z,7.12
2018-01-04T13:57:46.918Z,6.55
2018-01-04T14:00:15.945Z,9.68
2018-01-04T14:02:45.921Z,5.12
2018-01-04T14:05:17.173Z,5.30
2018-01-04T14:07:46.280Z,5.60
2018-01-04T14:10:14.337Z,4.50
2018-01-04T14:12:42.361Z,5.20
2018-01-04T14:15:11.385Z,3.70
2018-01-04T14:17:47.307Z,4.05
2018-01-04T14:20:17.293Z,3.65
2018-01-04T14:22:45.305Z,3.70
2018-01-04T14:25:24.785Z,3.97
2018-01-04T14:27:56.938Z,4.28
2018-01-04T14:30:25.886Z,4.50
2018-01-04T14:33:06.216Z,4.70
2018-01-04T14:35:39.573Z,4.80
2018-01-04T14:38:08.213Z,4.80
2018-01-04T14:40:39.865Z,5.05
2018-01-04T14:43:08.781Z,4.78
2018-01-04T14:45:50.741Z,4.15
2018-01-04T14:48:37.661Z,5.07
2018-01-04T14:51:05.685Z,3.92
2018-01-04T14:53:39.762Z,5.30
2018-01-04T14:56:07.773Z,3.92
2018-01-04T14:58:40.577Z,3.30
2018-01-04T15:01:10.245Z,3.53
2018-01-04T15:03:38.249Z,3.30
2018-01-04T15:06:08.033Z,3.28
2018-01-04T15:08:36.946Z,3.72
2018-01-04T15:11:07.025Z,3.40
2018-01-04T15:13:50.001Z,3.78
2018-01-04T15:16:27.157Z,3.92
2018-01-04T15:19:17.217Z,3.80
2018-01-04T15:24:52.488Z,3.95
2018-01-04T15:27:20.477Z,3.90
2018-01-04T15:29:49.389Z,3.65
2018-01-04T15:32:22.301Z,3.70
2018-01-04T15:34:58.187Z,3.60
2018-01-04T15:37:27.085Z,3.95
2018-01-04T15:39:56.281Z,4.25
2018-01-04T15:42:27.301Z,7.22
2018-01-04T15:45:06.801Z,3.42
2018-01-04T15:47:38.713Z,4.10
2018-01-04T15:50:12.139Z,4.15
2018-01-04T15:52:45.981Z,4.60
2018-01-04T15:55:13.989Z,4.32
2018-01-04T15:57:43.065Z,4.50
2018-01-04T16:00:14.345Z,4.60
2018-01-04T16:02:42.369Z,4.95
2018-01-04T16:05:10.401Z,5.30
2018-01-04T16:07:39.185Z,4.85
2018-01-04T16:10:08.958Z,4.95
2018-01-04T16:12:36.969Z,4.80
2018-01-04T16:15:05.745Z,5.68
2018-01-04T16:17:41.405Z,5.00
2018-01-04T16:20:13.624Z,5.20
2018-01-04T16:22:41.813Z,6.25
2018-01-04T16:25:11.881Z,6.70
2018-01-04T16:27:40.046Z,6.25
2018-01-04T16:30:08.349Z,7.87
2018-01-04T16:32:38.321Z,6.70
2018-01-04T16:35:07.349Z,4.90
2018-01-04T16:37:56.961Z,5.50
2018-01-04T16:40:27.114Z,5.12
2018-01-04T16:42:56.061Z,5.65
2018-01-04T16:45:29.936Z,5.25
2018-01-04T16:48:01.741Z,5.40
2018-01-04T16:50:35.524Z,4.00
2018-01-04T16:53:23.273Z,4.25
2018-01-04T16:55:52.721Z,5.55
2018-01-04T16:58:39.333Z,5.18
2018-01-04T17:01:07.356Z,4.93
2018-01-04T17:03:42.985Z,5.10
2018-01-04T17:06:11.017Z,5.70
2018-01-04T17:08:39.953Z,5.55
2018-01-04T17:11:11.497Z,5.85
2018-01-04T17:13:51.792Z,4.30
2018-01-04T17:16:20.757Z,5.47
2018-01-04T17:18:53.013Z,5.68
2018-01-04T17:21:21.921Z,5.15
2018-01-04T17:23:49.946Z,4.97
2018-01-04T17:26:19.861Z,4.93
2018-01-04T17:28:53.397Z,5.40
2018-01-04T17:31:24.373Z,6.43
2018-01-04T17:33:52.452Z,4.95
2018-01-04T17:36:22.429Z,6.22
2018-01-04T17:38:50.449Z,6.10
2018-01-04T17:41:21.620Z,6.30
2018-01-04T17:43:51.520Z,6.50
2018-01-04T17:46:23.113Z,6.20
2018-01-04T17:48:53.029Z,7.50
2018-01-04T17:51:22.909Z,7.70
2018-01-04T17:53:53.757Z,6.82
2018-01-04T17:56:22.125Z,6.45
2018-01-04T17:58:52.521Z,7.00
2018-01-04T18:01:24.125Z,5.97
2018-01-04T18:03:59.157Z,7.03
2018-01-04T18:06:27.168Z,7.30
2018-01-04T18:08:59.509Z,7.53
2018-01-04T18:11:32.272Z,17.87
2018-01-04T18:14:07.157Z,9.32
2018-01-04T18:16:35.789Z,7.93
2018-01-04T18:19:08.697Z,8.90
2018-01-04T18:21:40.641Z,9.77
2018-01-04T18:24:12.922Z,11.82
2018-01-04T18:26:40.961Z,11.50
2018-01-04T18:29:17.226Z,10.43
2018-01-04T18:31:53.333Z,13.88
2018-01-04T18:34:24.284Z,10.60
2018-01-04T18:36:54.413Z,17.80
2018-01-04T18:39:25.057Z,14.43
2018-01-04T18:41:53.152Z,18.25
2018-01-04T18:44:25.913Z,12.95
2018-01-04T18:47:00.038Z,14.07
2018-01-04T18:49:32.896Z,11.57
2018-01-04T18:52:07.753Z,9.10
2018-01-04T18:54:36.173Z,15.02
2018-01-04T18:57:05.624Z,6.62
2018-01-04T18:59:39.584Z,6.40
2018-01-04T19:02:10.656Z,8.30
2018-01-04T19:04:51.884Z,7.57
2018-01-04T19:07:34.316Z,8.98
2018-01-04T19:10:12.663Z,11.18
2018-01-04T19:12:41.024Z,10.57
2018-01-04T19:15:13.708Z,9.73
2018-01-04T19:18:00.832Z,9.80
2018-01-04T19:20:33.015Z,13.43
2018-01-04T19:23:03.536Z,10.50
2018-01-04T19:25:34.381Z,8.33
2018-01-04T19:28:15.024Z,8.50
2018-01-04T19:30:43.320Z,7.00
2018-01-04T19:33:18.992Z,6.68
2018-01-04T19:35:47.608Z,9.97
2018-01-04T19:38:16.653Z,8.17
2018-01-04T19:40:52.169Z,14.80
2018-01-04T19:43:26.728Z,13.67
2018-01-04T19:45:56.180Z,6.53
2018-01-04T19:48:40.528Z,7.10
2018-01-04T19:51:08.876Z,5.57
2018-01-04T19:53:44.928Z,8.53
2018-01-04T19:56:13.812Z,10.02
2018-01-04T19:58:47.926Z,8.27
2018-01-04T20:01:24.196Z,5.17
2018-01-04T20:09:12.832Z,6.37
2018-01-04T20:11:50.200Z,4.30
2018-01-04T20:14:20.360Z,3.30
2018-01-04T20:19:35.260Z,3.33
2018-01-04T20:22:17.768Z,5.13
2018-01-04T20:24:49.172Z,3.27
2018-01-04T20:27:17.212Z,2.70
2018-01-04T20:29:50.280Z,2.97
2018-01-04T20:35:18.751Z,2.47
2018-01-04T20:37:53.044Z,6.47
2018-01-04T20:40:21.731Z,4.27
2018-01-04T20:42:54.820Z,2.80
2018-01-04T20:45:26.664Z,1.73
2018-01-04T20:47:54.711Z,1.50
2018-01-04T20:50:25.403Z,2.00
2018-01-04T20:53:06.355Z,1.63
2018-01-04T20:55:35.161Z,1.70
2018-01-04T20:58:14.787Z,2.47
2018-01-04T21:00:47.063Z,2.43
2018-01-04T21:03:19.821Z,3.20
2018-01-04T21:06:05.983Z,1.87
2018-01-04T21:08:34.035Z,3.63
2018-01-04T21:11:08.463Z,3.50
2018-01-04T21:13:44.025Z,1.60
2018-01-04T21:16:14.911Z,2.10
2018-01-04T21:18:44.911Z,1.83
2018-01-04T21:21:13.583Z,1.50
2018-01-04T21:23:42.392Z,1.80
2018-01-04T21:26:14.679Z,1.53
2018-01-04T21:28:50.634Z,1.53
2018-01-04T21:34:19.927Z,2.70
2018-01-04T21:36:58.715Z,5.10
2018-01-04T21:39:31.743Z,0.80
2018-01-04T21:42:01.459Z,2.33
2018-01-04T21:44:29.511Z,5.90
2018-01-04T21:46:58.578Z,1.20
2018-01-04T21:49:32.355Z,3.42
2018-01-04T21:52:05.796Z,2.50
2018-01-04T21:54:38.639Z,11.67
2018-01-04T21:57:17.643Z,2.37
2018-01-04T21:59:52.806Z,1.20
2018-01-04T22:02:21.115Z,1.48
2018-01-04T22:04:51.583Z,2.13
2018-01-04T22:07:24.403Z,4.57
2018-01-04T22:09:59.095Z,2.63
2018-01-04T22:12:28.267Z,1.23
2018-01-04T22:15:02.739Z,1.60
2018-01-04T22:17:35.659Z,1.10
2018-01-04T22:20:07.799Z,2.97
2018-01-04T22:22:42.439Z,1.62
2018-01-04T22:25:10.574Z,4.03
2018-01-04T22:27:41.611Z,2.43
2018-01-04T22:30:14.359Z,2.67
2018-01-04T22:32:43.402Z,3.70
2018-01-04T22:35:11.497Z,1.80
2018-01-04T22:37:43.903Z,2.60
2018-01-04T22:40:13.911Z,1.63
2018-01-04T22:42:51.143Z,1.73
2018-01-04T22:45:26.563Z,2.03
2018-01-04T22:47:58.610Z,7.37
2018-01-04T22:50:34.224Z,1.70
2018-01-04T22:53:03.087Z,1.57
2018-01-04T22:55:38.990Z,1.30
2018-01-04T22:58:12.795Z,2.50
2018-01-04T23:00:48.831Z,1.10
2018-01-04T23:03:27.847Z,13.07
2018-01-04T23:05:56.910Z,2.08
2018-01-04T23:08:26.027Z,2.15
2018-01-04T23:10:59.659Z,4.70
2018-01-04T23:13:29.019Z,6.57
2018-01-04T23:16:06.928Z,2.92
2018-01-04T23:18:36.347Z,3.92
2018-01-04T23:21:08.631Z,5.12
2018-01-04T23:23:37.683Z,7.20
2018-01-04T23:26:05.732Z,8.43
2018-01-04T23:28:44.571Z,6.47
2018-01-04T23:31:15.415Z,3.30
2018-01-04T23:33:53.979Z,4.47
2018-01-04T23:36:29.620Z,6.15
2018-01-04T23:41:57.088Z,15.80
2018-01-04T23:44:29.023Z,17.42
2018-01-04T23:46:58.167Z,12.68
2018-01-04T23:49:30.059Z,31.77
2018-01-04T23:52:07.863Z,21.83
2018-01-04T23:54:37.070Z,14.35
2018-01-04T23:57:07.859Z,21.87
2018-01-04T23:59:38.319Z,18.95
